Aviation Digital Data Service (ADDS)

Output produced by METARs form (1247 UTC 26 March 2019)
found at http://www.aviationweather.gov/metar/data/
 
TAF FLMF 261000Z 2612/2718 16010KT 9999 SCT035TCU SCT100 
     PROB30 
     TEMPO 2613/2615 9000 -SHRA 
     BECMG 2618/2622 VRB03KT 9999 FEW035CB SCT090 
     BECMG 2707/2711 15005KT 9999 SCT025